Terminal Aerodrome Forecast
Issued by NWS

Current Version | Previous Version | Graphics & Text | Print | Product List | Glossary On
Versions: 1 2 3 4 5 6 7 8 9 10 11 12 13 14 15 16 17 18 19 20 21 22 23 24 25 26 27 28 29 30 31 32 33 34 35 36 37
000
FTUS41 KRNK 241730
TAFLWB
TAF
KLWB 241730Z 2418/2518 33003KT P6SM VCTS BKN030CB
      TEMPO 2418/2420 2SM TSRA BR OVC030CB
     FM242300 31005KT P6SM BKN050
     FM250600 00000KT 2SM BR SCT001
     FM250800 00000KT 1/4SM FG OVC001
     FM251500 33004KT P6SM BKN120=

USA.gov is the U.S. government's official web portal to all federal, state and local government web resources and services.